createdAt,value
2019-06-07T00:01:21.226Z,16.60
2019-06-07T00:06:28.768Z,16.40
2019-06-07T00:11:36.204Z,16.50
2019-06-07T00:16:44.687Z,16.40
2019-06-07T00:22:15.660Z,16.30
2019-06-07T00:27:01.191Z,16.50
2019-06-07T00:32:09.297Z,16.60
2019-06-07T00:37:19.776Z,16.60
2019-06-07T00:42:25.918Z,16.60
2019-06-07T00:47:33.332Z,16.50
2019-06-07T00:57:49.870Z,16.00
2019-06-07T01:02:57.782Z,16.10
2019-06-07T01:08:05.351Z,16.00
2019-06-07T01:13:15.125Z,16.20
2019-06-07T01:18:37.265Z,16.20
2019-06-07T01:24:04.678Z,16.00
2019-06-07T01:28:41.280Z,16.10
2019-06-07T01:33:51.260Z,16.00
2019-06-07T01:38:57.703Z,16.00
2019-06-07T01:44:05.169Z,15.80
2019-06-07T01:49:12.617Z,15.90
2019-06-07T01:54:53.348Z,15.90
2019-06-07T01:59:31.670Z,15.90
2019-06-07T02:04:38.479Z,15.90
2019-06-07T02:09:45.977Z,15.90
2019-06-07T02:14:53.396Z,15.70
2019-06-07T02:20:00.729Z,15.50
2019-06-07T02:30:42.219Z,15.70
2019-06-07T02:35:38.755Z,15.70
2019-06-07T02:40:37.436Z,15.70
2019-06-07T02:45:44.891Z,15.40
2019-06-07T02:50:52.880Z,15.40
2019-06-07T02:56:34.889Z,15.30
2019-06-07T03:01:10.075Z,15.20
2019-06-07T03:06:18.206Z,15.00
2019-06-07T03:11:31.663Z,14.90
2019-06-07T03:16:46.058Z,15.00
2019-06-07T03:21:55.209Z,14.70
2019-06-07T03:32:12.113Z,14.80
2019-06-07T03:37:19.540Z,14.90
2019-06-07T03:42:26.972Z,14.90
2019-06-07T03:47:36.484Z,14.80
2019-06-07T03:52:43.611Z,14.70
2019-06-07T04:03:00.076Z,14.80
2019-06-07T04:08:07.596Z,15.00
2019-06-07T04:13:15.085Z,15.00
2019-06-07T04:18:22.506Z,14.80
2019-06-07T04:23:34.922Z,14.90
2019-06-07T04:29:30.861Z,15.10
2019-06-07T04:33:50.749Z,14.80
2019-06-07T04:38:59.244Z,14.90
2019-06-07T04:44:08.694Z,14.90
2019-06-07T04:49:21.065Z,14.90
2019-06-07T04:54:31.056Z,14.90
2019-06-07T05:04:46.805Z,15.10
2019-06-07T05:09:54.270Z,15.20
2019-06-07T05:15:01.755Z,15.20
2019-06-07T05:20:09.418Z,15.20
2019-06-07T05:25:18.576Z,15.20
2019-06-07T05:35:49.041Z,15.40
2019-06-07T05:40:56.468Z,15.50
2019-06-07T05:46:03.883Z,15.60
2019-06-07T05:51:11.415Z,15.60
2019-06-07T05:56:18.915Z,15.40
2019-06-07T06:01:43.024Z,15.50
2019-06-07T06:06:36.357Z,15.50
2019-06-07T06:11:58.494Z,15.50
2019-06-07T06:16:54.158Z,15.70
2019-06-07T06:22:01.631Z,15.70
2019-06-07T06:27:28.456Z,15.90
2019-06-07T06:37:27.537Z,15.90
2019-06-07T06:42:34.921Z,15.80
2019-06-07T06:47:43.404Z,16.10
2019-06-07T06:52:54.510Z,16.20
2019-06-07T06:58:00.434Z,16.30
2019-06-07T07:03:47.220Z,16.30
2019-06-07T07:08:16.887Z,16.40
2019-06-07T07:13:24.292Z,16.50
2019-06-07T07:18:31.759Z,16.30
2019-06-07T07:23:39.155Z,16.30
2019-06-07T07:28:53.955Z,16.50
2019-06-07T07:34:28.369Z,16.40
2019-06-07T07:39:07.072Z,16.50
2019-06-07T07:44:14.491Z,16.60
2019-06-07T07:49:21.840Z,16.70
2019-06-07T07:54:29.214Z,16.70
2019-06-07T07:59:42.143Z,16.70
2019-06-07T08:05:20.566Z,16.70
2019-06-07T08:09:57.702Z,16.90
2019-06-07T08:15:04.194Z,17.00
2019-06-07T08:20:14.833Z,17.00
2019-06-07T08:25:23.697Z,17.10
2019-06-07T08:30:50.763Z,17.00
2019-06-07T08:36:05.739Z,17.30
2019-06-07T08:40:54.606Z,17.40
2019-06-07T08:46:06.010Z,17.50
2019-06-07T08:51:08.704Z,17.50
2019-06-07T08:56:16.321Z,17.50
2019-06-07T09:01:23.748Z,17.30
2019-06-07T09:11:40.161Z,17.60
2019-06-07T09:16:47.591Z,17.50
2019-06-07T09:21:57.452Z,17.70
2019-06-07T09:27:07.626Z,17.80
2019-06-07T09:32:18.250Z,17.70
2019-06-07T09:38:03.792Z,18.00
2019-06-07T09:42:31.542Z,18.10
2019-06-07T09:47:38.877Z,18.10
2019-06-07T09:52:57.853Z,18.40
2019-06-07T09:57:58.253Z,18.30
2019-06-07T10:03:16.753Z,18.30
2019-06-07T10:09:15.166Z,18.20
2019-06-07T10:13:22.626Z,18.40
2019-06-07T10:18:31.165Z,18.50
2019-06-07T10:23:38.617Z,18.60
2019-06-07T10:28:46.121Z,19.30
2019-06-07T10:33:53.365Z,20.00
2019-06-07T10:39:00.829Z,20.20
2019-06-07T10:44:09.707Z,20.60
2019-06-07T10:49:18.255Z,20.70
2019-06-07T10:54:30.393Z,20.70
2019-06-07T10:59:34.631Z,20.90
2019-06-07T11:04:42.041Z,21.60
2019-06-07T11:10:05.703Z,21.80
2019-06-07T11:14:58.518Z,21.70
2019-06-07T11:20:08.313Z,21.70
2019-06-07T11:25:16.328Z,21.80
2019-06-07T11:30:23.805Z,22.00
2019-06-07T11:35:31.385Z,22.60
2019-06-07T11:40:38.755Z,22.90
2019-06-07T11:45:46.115Z,23.20
2019-06-07T11:50:53.578Z,23.00
2019-06-07T11:56:00.981Z,23.50
2019-06-07T12:01:09.579Z,24.10
2019-06-07T12:06:18.137Z,24.30
2019-06-07T12:11:25.557Z,24.20
2019-06-07T12:16:32.932Z,24.90
2019-06-07T12:21:40.400Z,24.60
2019-06-07T12:26:47.757Z,25.30
2019-06-07T12:31:55.225Z,25.20
2019-06-07T12:37:02.704Z,25.20
2019-06-07T12:42:10.212Z,25.30
2019-06-07T12:47:18.859Z,25.60
2019-06-07T12:52:26.423Z,25.90
2019-06-07T12:57:33.851Z,25.90
2019-06-07T13:02:41.276Z,26.10
2019-06-07T13:07:48.618Z,26.40
2019-06-07T13:12:56.098Z,26.80
2019-06-07T13:18:03.574Z,27.40
2019-06-07T13:23:11.002Z,27.70
2019-06-07T13:28:18.960Z,27.40
2019-06-07T13:33:31.982Z,28.10
2019-06-07T13:38:35.465Z,28.10
2019-06-07T13:43:42.921Z,28.30
2019-06-07T13:48:50.259Z,27.80
2019-06-07T13:53:58.777Z,27.80
2019-06-07T13:59:06.308Z,27.60
2019-06-07T14:04:13.828Z,27.30
2019-06-07T14:09:21.262Z,27.90
2019-06-07T14:14:29.510Z,27.10
2019-06-07T14:19:37.653Z,27.00
2019-06-07T14:24:45.021Z,27.80
2019-06-07T14:29:52.439Z,27.80
2019-06-07T14:35:00.139Z,28.70
2019-06-07T14:40:08.919Z,29.20
2019-06-07T14:45:17.556Z,28.80
2019-06-07T14:50:26.086Z,28.80
2019-06-07T14:55:33.415Z,29.60
2019-06-07T15:00:45.939Z,30.00
2019-06-07T15:05:53.291Z,29.60
2019-06-07T15:11:00.677Z,28.60
2019-06-07T15:16:08.067Z,26.80
2019-06-07T15:21:15.493Z,27.00
2019-06-07T15:26:22.885Z,27.70
2019-06-07T15:31:30.286Z,26.80
2019-06-07T15:36:39.182Z,26.80
2019-06-07T15:41:46.594Z,26.60
2019-06-07T15:46:53.942Z,26.80
2019-06-07T15:52:01.315Z,26.60
2019-06-07T15:57:08.645Z,26.30
2019-06-07T16:02:15.982Z,26.00
2019-06-07T16:07:23.431Z,26.20
2019-06-07T16:12:30.937Z,26.30
2019-06-07T16:17:39.223Z,26.70
2019-06-07T16:22:46.754Z,26.00
2019-06-07T16:27:54.133Z,26.30
2019-06-07T16:33:01.552Z,25.70
2019-06-07T16:38:09.097Z,25.50
2019-06-07T16:43:18.185Z,25.50
2019-06-07T16:48:25.585Z,25.40
2019-06-07T16:53:33.058Z,25.50
2019-06-07T16:58:40.397Z,25.10
2019-06-07T17:03:47.909Z,25.20
2019-06-07T17:08:58.019Z,24.90
2019-06-07T17:14:06.574Z,24.60
2019-06-07T17:19:14.107Z,24.50
2019-06-07T17:24:21.526Z,24.70
2019-06-07T17:29:29.044Z,24.70
2019-06-07T17:34:36.427Z,24.30
2019-06-07T17:39:44.963Z,24.10
2019-06-07T17:44:52.577Z,24.40
2019-06-07T17:49:59.938Z,24.20
2019-06-07T17:55:08.136Z,24.00
2019-06-07T18:00:33.426Z,23.90
2019-06-07T18:05:25.885Z,24.00
2019-06-07T18:10:38.748Z,23.60
2019-06-07T18:15:52.816Z,23.80
2019-06-07T18:20:56.939Z,23.80
2019-06-07T18:26:04.308Z,23.70
2019-06-07T18:31:11.821Z,23.30
2019-06-07T18:36:19.237Z,23.40
2019-06-07T18:41:26.487Z,23.30
2019-06-07T18:46:33.875Z,23.20
2019-06-07T18:51:41.272Z,23.30
2019-06-07T18:56:48.846Z,23.20
2019-06-07T19:01:57.598Z,22.90
2019-06-07T19:07:05.136Z,22.90
2019-06-07T19:12:12.554Z,22.90
2019-06-07T19:17:20.039Z,22.80
2019-06-07T19:22:27.472Z,22.80
2019-06-07T19:27:35.082Z,22.40
2019-06-07T19:32:42.607Z,22.30
2019-06-07T19:37:50.017Z,22.40
2019-06-07T19:42:58.637Z,22.30
2019-06-07T19:48:06.488Z,22.30
2019-06-07T19:53:13.980Z,22.20
2019-06-07T19:58:21.546Z,22.00
2019-06-07T20:03:29.134Z,21.50
2019-06-07T20:08:36.722Z,21.00
2019-06-07T20:13:45.845Z,21.10
2019-06-07T20:18:53.342Z,21.20
2019-06-07T20:24:22.017Z,20.80
2019-06-07T20:29:24.877Z,20.90
2019-06-07T20:34:19.052Z,20.80
2019-06-07T20:39:26.578Z,21.00
2019-06-07T20:44:34.029Z,20.30
2019-06-07T20:49:41.454Z,20.60
2019-06-07T20:54:48.780Z,20.60
2019-06-07T20:59:56.206Z,20.20
2019-06-07T21:05:03.645Z,20.30
2019-06-07T21:10:11.454Z,19.70
2019-06-07T21:15:19.377Z,20.00
2019-06-07T21:20:26.818Z,20.40
2019-06-07T21:25:34.370Z,20.40
2019-06-07T21:30:42.264Z,20.20
2019-06-07T21:35:49.715Z,20.00
2019-06-07T21:40:57.163Z,20.00
2019-06-07T21:46:09.340Z,19.50
2019-06-07T21:51:13.709Z,19.50
2019-06-07T21:56:21.145Z,19.70
2019-06-07T22:01:33.547Z,19.60
2019-06-07T22:06:40.989Z,19.60
2019-06-07T22:11:49.404Z,19.60
2019-06-07T22:16:59.346Z,19.60
2019-06-07T22:22:09.329Z,19.60
2019-06-07T22:27:17.721Z,19.40
2019-06-07T22:32:25.315Z,19.10
2019-06-07T22:37:32.753Z,19.20
2019-06-07T22:42:40.109Z,19.00
2019-06-07T22:47:47.489Z,18.40
2019-06-07T22:52:55.024Z,18.60
2019-06-07T22:58:02.484Z,18.50
2019-06-07T23:03:10.661Z,18.00
2019-06-07T23:08:19.106Z,17.90
2019-06-07T23:13:26.525Z,18.20
2019-06-07T23:18:33.981Z,17.90
2019-06-07T23:23:41.408Z,17.90
2019-06-07T23:28:48.786Z,18.30
2019-06-07T23:33:56.196Z,18.30
2019-06-07T23:39:05.252Z,18.00
2019-06-07T23:44:13.310Z,17.90
2019-06-07T23:49:22.421Z,17.60
2019-06-07T23:54:30.046Z,17.70
2019-06-07T23:59:37.482Z,17.60
